Aviation Digital Data Service (ADDS)

Output produced by TAFs form (0154 UTC 22 June 2018)
found at http://www.aviationweather.gov/adds/tafs/
 
METAR text: RJAA 220130Z 14006KT 090V190 9999 FEW020 SCT040 BKN/// 26/19 Q1008 NOSIG
Conditions at: RJAA (NARITA INTL , JP) observed 0130 UTC 22 June 2018
Temperature: 26.0°C (79°F)
Dewpoint: 19.0°C (66°F) [RH = 65%]
Pressure (altimeter): 29.76 inches Hg (1008.0 mb)
Winds: from the SE (140 degrees) at 7 MPH (6 knots; 3.1 m/s)
Visibility: 6 or more miles (10+ km)
Ceiling: at least 12,000 feet AGL
Clouds: few clouds at 2000 feet AGL
scattered clouds at 4000 feet AGL
Weather: no significant weather observed at this time

Forecast for: RJAA (NARITA INTL , JP)
Text: TAF AMD RJAA 220003Z 2200/2306 16012KT 9999 FEW020 SCT040
Forecast period: 0000 UTC 22 June 2018 to 0600 UTC 23 June 2018
Forecast type: FROM: standard forecast or significant change
Winds: from the SSE (160 degrees) at 14 MPH (12 knots; 6.2 m/s)
Visibility: 6 or more miles (10+ km)
Clouds: few clouds at 2000 feet AGL
scattered clouds at 4000 feet AGL
Weather: no significant weather forecast for this period